Time;durP1;ratioP1;P1;durP2;ratioP2;P2;SDS_P1;SDS_P2;PMS_P1;PMS_P2;Temp;Humidity;BMP_temperature;BMP_pressure;BME280_temperature;BME280_humidity;BME280_pressure;Samples;Min_cycle;Max_cycle;Signal;HPM_P1;HPM_P2
2023/08/06 00:00:30;;;;;;;5.60;2.42;;;;;17.60;97648.00;;;;5095596;28;20115;-64
2023/08/06 00:02:57;;;;;;;4.03;2.25;;;;;17.70;97646.00;;;;5094620;28;20075;-64
2023/08/06 00:05:24;;;;;;;3.08;1.70;;;;;17.60;97645.00;;;;5095679;28;20538;-64
2023/08/06 00:07:50;;;;;;;2.90;2.20;;;;;17.70;97640.00;;;;5094649;28;20058;-65
2023/08/06 00:10:17;;;;;;;3.38;2.22;;;;;17.70;97638.00;;;;5095568;28;20055;-65
2023/08/06 00:17:03;;;;;;;4.93;2.22;;;;;17.70;97638.00;;;;5088121;22;20043;-64
2023/08/06 00:19:29;;;;;;;4.40;1.90;;;;;17.70;97633.00;;;;5056997;28;20390;-64
2023/08/06 00:21:56;;;;;;;5.07;2.03;;;;;17.60;97632.00;;;;5075087;28;20076;-64
2023/08/06 00:24:23;;;;;;;4.28;1.90;;;;;17.60;97629.00;;;;5075102;28;20123;-63
2023/08/06 00:26:49;;;;;;;3.40;1.80;;;;;17.70;97631.00;;;;5040768;28;20057;-64
2023/08/06 00:29:16;;;;;;;2.03;1.70;;;;;17.70;97637.00;;;;5057031;28;20075;-64
2023/08/06 00:31:42;;;;;;;4.50;2.17;;;;;17.70;97630.00;;;;5057355;28;20032;-65
2023/08/06 00:34:09;;;;;;;3.78;2.17;;;;;17.60;97624.00;;;;5074949;28;20060;-64
2023/08/06 00:36:36;;;;;;;3.95;2.20;;;;;17.60;97619.00;;;;5075332;28;20064;-64
2023/08/06 00:39:03;;;;;;;2.67;1.95;;;;;17.60;97611.00;;;;5074840;28;20037;-64
2023/08/06 00:41:29;;;;;;;3.53;2.00;;;;;17.60;97604.00;;;;5040219;28;20139;-64
2023/08/06 00:43:56;;;;;;;2.35;2.15;;;;;17.60;97604.00;;;;5056615;28;20090;-63
2023/08/06 00:46:23;;;;;;;4.15;2.10;;;;;17.60;97604.00;;;;5056792;28;20044;-63
2023/08/06 00:48:51;;;;;;;3.10;2.03;;;;;17.60;97607.00;;;;5056885;28;20075;-63
2023/08/06 00:51:17;;;;;;;2.80;1.95;;;;;17.60;97596.00;;;;5074337;28;20036;-63
2023/08/06 00:53:44;;;;;;;3.70;2.10;;;;;17.70;97593.00;;;;5056752;28;20127;-63
2023/08/06 00:56:12;;;;;;;3.30;1.70;;;;;17.70;97588.00;;;;5056823;28;20140;-63
2023/08/06 00:58:39;;;;;;;3.45;1.50;;;;;17.80;97594.00;;;;5056703;28;20053;-63
2023/08/06 01:01:06;;;;;;;4.75;1.98;;;;;17.80;97589.00;;;;5039035;28;20040;-61
2023/08/06 01:03:34;;;;;;;4.10;1.90;;;;;17.90;97593.00;;;;5057002;28;20132;-62
2023/08/06 01:06:00;;;;;;;3.63;1.83;;;;;17.80;97594.00;;;;5074596;28;20142;-62
2023/08/06 01:08:39;;;;;;;3.17;1.90;;;;;17.70;97591.00;;;;5057018;28;20068;-62
2023/08/06 01:11:49;;;;;;;3.85;1.75;;;;;17.70;97593.00;;;;5056684;28;20051;-63
2023/08/06 01:14:26;;;;;;;3.42;1.85;;;;;17.70;97586.00;;;;5003585;28;20050;-63
2023/08/06 01:16:54;;;;;;;4.18;1.85;;;;;17.50;97593.00;;;;5056635;28;20041;-63
2023/08/06 01:19:21;;;;;;;3.70;1.80;;;;;17.50;97599.00;;;;5074242;28;20458;-63
2023/08/06 01:21:47;;;;;;;5.03;1.60;;;;;17.40;97592.00;;;;5074126;28;20041;-64
2023/08/06 01:24:16;;;;;;;2.72;1.70;;;;;17.40;97600.00;;;;5073933;28;20043;-63
2023/08/06 01:26:48;;;;;;;2.97;1.50;;;;;17.30;97594.00;;;;5056483;28;20098;-64
2023/08/06 01:29:25;;;;;;;2.45;1.50;;;;;17.30;97597.00;;;;5056083;28;20398;-62
2023/08/06 01:31:52;;;;;;;2.97;1.35;;;;;17.20;97600.00;;;;5039911;28;20084;-63
2023/08/06 01:34:32;;;;;;;2.47;1.50;;;;;17.30;97602.00;;;;5056288;28;20041;-63
2023/08/06 01:37:00;;;;;;;2.33;1.13;;;;;17.30;97589.00;;;;5074737;28;20467;-63
2023/08/06 01:39:27;;;;;;;2.78;1.40;;;;;17.30;97590.00;;;;5039589;28;20052;-64
2023/08/06 01:41:54;;;;;;;1.80;1.27;;;;;17.20;97590.00;;;;5040477;28;20094;-64
2023/08/06 01:44:21;;;;;;;4.63;1.77;;;;;17.20;97581.00;;;;5075554;28;20412;-65
2023/08/06 01:46:48;;;;;;;2.85;1.50;;;;;17.20;97575.00;;;;5040679;28;20098;-63
2023/08/06 01:49:14;;;;;;;5.90;1.48;;;;;17.20;97581.00;;;;5056169;28;20468;-63
2023/08/06 01:51:41;;;;;;;4.60;1.63;;;;;17.20;97579.00;;;;5056664;28;20113;-63
2023/08/06 01:54:08;;;;;;;3.17;1.35;;;;;17.20;97576.00;;;;5056745;28;20074;-63
2023/08/06 01:56:34;;;;;;;1.98;1.10;;;;;17.20;97574.00;;;;5073592;28;20048;-64
2023/08/06 01:59:01;;;;;;;4.30;1.55;;;;;17.20;97577.00;;;;5055692;28;20045;-63
2023/08/06 02:01:30;;;;;;;2.75;1.40;;;;;17.20;97573.00;;;;5055426;28;20087;-64
2023/08/06 02:03:57;;;;;;;2.40;1.40;;;;;17.20;97569.00;;;;5057709;28;20040;-65
2023/08/06 02:06:24;;;;;;;3.00;1.42;;;;;17.20;97572.00;;;;5042137;28;20054;-63
2023/08/06 02:08:50;;;;;;;3.13;1.70;;;;;17.10;97559.00;;;;5041471;28;20093;-63
2023/08/06 02:11:18;;;;;;;4.97;1.63;;;;;17.10;97555.00;;;;5058007;28;20060;-63
2023/08/06 02:13:46;;;;;;;2.15;1.40;;;;;17.20;97552.00;;;;5058405;28;20033;-63
2023/08/06 02:16:17;;;;;;;4.70;1.60;;;;;17.20;97552.00;;;;5058155;28;20112;-63
2023/08/06 02:18:44;;;;;;;3.40;1.65;;;;;17.20;97559.00;;;;5076580;28;20040;-63
2023/08/06 02:21:11;;;;;;;3.70;1.80;;;;;17.20;97560.00;;;;5042283;28;20562;-63
2023/08/06 02:23:37;;;;;;;3.72;1.70;;;;;17.10;97550.00;;;;5077126;28;20032;-63
2023/08/06 02:26:04;;;;;;;4.10;1.92;;;;;17.10;97550.00;;;;5076647;28;20413;-64
2023/08/06 02:28:32;;;;;;;2.17;1.52;;;;;17.10;97548.00;;;;5054826;28;20044;-65
2023/08/06 02:30:59;;;;;;;4.78;2.33;;;;;17.10;97541.00;;;;5054915;28;20044;-66
2023/08/06 02:33:26;;;;;;;3.65;1.63;;;;;17.00;97545.00;;;;5055156;28;20108;-65
2023/08/06 02:36:04;;;;;;;3.40;1.60;;;;;17.10;97534.00;;;;5055612;28;20041;-64
2023/08/06 02:38:32;;;;;;;6.82;2.05;;;;;17.00;97533.00;;;;5055077;28;20048;-64
2023/08/06 02:40:58;;;;;;;9.15;1.88;;;;;17.00;97535.00;;;;5072337;28;20041;-67
2023/08/06 02:43:25;;;;;;;4.15;1.50;;;;;17.00;97528.00;;;;5072797;28;20037;-64
2023/08/06 02:45:52;;;;;;;4.38;2.10;;;;;16.90;97530.00;;;;5054759;28;20441;-64
2023/08/06 02:48:19;;;;;;;2.92;1.60;;;;;16.80;97537.00;;;;5054987;28;20074;-64
2023/08/06 02:50:46;;;;;;;4.15;1.52;;;;;16.80;97534.00;;;;5054573;28;20049;-63
2023/08/06 02:53:13;;;;;;;1.60;1.27;;;;;16.80;97535.00;;;;5072129;28;20393;-65
2023/08/06 02:55:47;;;;;;;4.50;1.20;;;;;16.70;97540.00;;;;5054529;28;20091;-64
2023/08/06 02:58:17;;;;;;;4.45;1.65;;;;;16.70;97541.00;;;;5073041;28;20094;-63
2023/08/06 03:01:06;;;;;;;1.55;0.70;;;;;16.60;97538.00;;;;5039837;28;20051;-63
2023/08/06 03:03:43;;;;;;;2.42;1.05;;;;;16.60;97533.00;;;;5054781;28;20043;-64
2023/08/06 03:06:09;;;;;;;2.25;0.93;;;;;16.50;97533.00;;;;5055091;28;20066;-63
2023/08/06 03:08:45;;;;;;;0.80;0.70;;;;;16.50;97548.00;;;;5058839;28;20135;-64
2023/08/06 03:11:12;;;;;;;2.33;0.90;;;;;16.50;97533.00;;;;5054192;28;20059;-64
2023/08/06 03:13:39;;;;;;;2.38;0.60;;;;;16.40;97532.00;;;;5038061;28;20489;-63
2023/08/06 03:16:06;;;;;;;0.93;0.65;;;;;16.40;97530.00;;;;5054970;28;20044;-63
2023/08/06 03:18:33;;;;;;;2.72;0.60;;;;;16.30;97531.00;;;;5054071;28;20048;-62
2023/08/06 03:21:03;;;;;;;1.25;0.77;;;;;16.30;97521.00;;;;5053975;28;20082;-64
2023/08/06 03:23:30;;;;;;;3.42;1.25;;;;;16.20;97522.00;;;;5037266;28;20048;-63
2023/08/06 03:26:04;;;;;;;1.02;0.80;;;;;16.20;97518.00;;;;5053869;28;20051;-63
2023/08/06 03:28:32;;;;;;;1.23;0.50;;;;;16.20;97518.00;;;;5054057;28;20052;-63
2023/08/06 03:31:01;;;;;;;0.90;0.80;;;;;16.20;97513.00;;;;5053871;28;20045;-63
2023/08/06 03:33:33;;;;;;;1.00;0.50;;;;;16.20;97531.00;;;;5038555;28;20153;-63
2023/08/06 03:36:03;;;;;;;1.20;0.70;;;;;16.20;97520.00;;;;5055076;28;20041;-63
2023/08/06 03:38:32;;;;;;;1.42;0.50;;;;;16.10;97515.00;;;;5038254;28;20158;-63
2023/08/06 03:41:02;;;;;;;1.45;0.60;;;;;16.10;97515.00;;;;5053986;28;20055;-63
2023/08/06 03:43:29;;;;;;;1.67;0.63;;;;;16.10;97518.00;;;;5037792;28;20045;-63
2023/08/06 03:45:55;;;;;;;2.78;0.60;;;;;16.10;97519.00;;;;5037966;28;20094;-64
2023/08/06 03:48:22;;;;;;;1.95;0.57;;;;;16.10;97515.00;;;;5054488;28;20497;-63
2023/08/06 03:50:49;;;;;;;0.63;0.40;;;;;16.10;97514.00;;;;5054235;28;20044;-63
2023/08/06 03:53:17;;;;;;;1.05;0.50;;;;;16.20;97509.00;;;;5054130;28;20543;-63
2023/08/06 03:55:44;;;;;;;0.57;0.47;;;;;16.20;97514.00;;;;5054683;28;20055;-63
2023/08/06 03:58:10;;;;;;;0.77;0.40;;;;;16.10;97512.00;;;;5037700;28;20147;-63
2023/08/06 04:00:37;;;;;;;0.47;0.35;;;;;16.10;97516.00;;;;5056836;28;20048;-62
2023/08/06 04:03:04;;;;;;;2.05;0.40;;;;;16.00;97516.00;;;;5041905;28;20045;-62
2023/08/06 04:05:32;;;;;;;2.05;0.50;;;;;16.00;97511.00;;;;5057887;28;20076;-62
2023/08/06 04:07:59;;;;;;;0.70;0.30;;;;;15.90;97518.00;;;;5054982;28;20055;-62
2023/08/06 04:10:27;;;;;;;4.32;0.35;;;;;15.90;97515.00;;;;5037607;28;20048;-62
2023/08/06 04:12:53;;;;;;;0.30;0.30;;;;;15.90;97515.00;;;;5072004;28;20041;-62
2023/08/06 04:15:20;;;;;;;0.57;0.50;;;;;15.90;97504.00;;;;5054226;28;20466;-63
2023/08/06 04:17:46;;;;;;;2.38;0.40;;;;;15.90;97513.00;;;;5054154;28;20148;-62
2023/08/06 04:20:13;;;;;;;1.75;0.63;;;;;15.80;97515.00;;;;5037535;28;20055;-62
2023/08/06 04:22:40;;;;;;;1.35;0.30;;;;;15.80;97510.00;;;;5072381;28;20471;-64
2023/08/06 04:25:07;;;;;;;0.60;0.50;;;;;15.80;97509.00;;;;5054296;28;20143;-62
2023/08/06 04:27:34;;;;;;;0.80;0.55;;;;;15.80;97509.00;;;;5038039;28;20049;-62
2023/08/06 04:30:01;;;;;;;0.57;0.40;;;;;15.80;97502.00;;;;5054131;28;20045;-62
2023/08/06 04:32:30;;;;;;;2.92;0.60;;;;;15.80;97503.00;;;;5037886;28;20049;-62
2023/08/06 04:34:57;;;;;;;0.43;0.30;;;;;15.80;97500.00;;;;5054701;28;20041;-62
2023/08/06 04:37:24;;;;;;;0.47;0.40;;;;;15.80;97509.00;;;;5056745;28;20140;-66
2023/08/06 04:39:50;;;;;;;0.95;0.40;;;;;15.80;97502.00;;;;5041024;28;20481;-62
2023/08/06 04:42:18;;;;;;;0.73;0.50;;;;;15.80;97504.00;;;;5040791;28;20094;-62
2023/08/06 04:44:45;;;;;;;0.50;0.50;;;;;15.80;97510.00;;;;5057355;28;20509;-62
2023/08/06 04:47:13;;;;;;;1.45;0.50;;;;;15.80;97504.00;;;;5057100;28;20056;-62
2023/08/06 04:49:41;;;;;;;0.47;0.47;;;;;15.80;97503.00;;;;5074703;28;20048;-62
2023/08/06 04:52:08;;;;;;;1.17;0.50;;;;;15.80;97497.00;;;;5056948;28;20048;-62
2023/08/06 04:54:34;;;;;;;0.95;0.50;;;;;15.80;97501.00;;;;5057351;28;20075;-63
2023/08/06 04:57:01;;;;;;;5.75;0.57;;;;;15.80;97511.00;;;;5074790;28;20120;-63
2023/08/06 04:59:27;;;;;;;1.58;0.50;;;;;15.80;97503.00;;;;5056618;28;20119;-63
2023/08/06 05:01:54;;;;;;;1.17;0.30;;;;;15.90;97495.00;;;;5056678;28;20080;-62
2023/08/06 05:04:21;;;;;;;0.73;0.52;;;;;15.90;97514.00;;;;5040056;28;20044;-62
2023/08/06 05:06:48;;;;;;;4.47;2.72;;;;;15.90;97511.00;;;;5074543;28;20410;-63
2023/08/06 05:09:14;;;;;;;0.40;0.40;;;;;15.90;97511.00;;;;5059666;28;20039;-63
2023/08/06 05:11:41;;;;;;;0.50;0.50;;;;;15.90;97510.00;;;;5080787;28;20480;-62
2023/08/06 05:14:07;;;;;;;1.27;0.40;;;;;15.80;97513.00;;;;5063401;28;20029;-62
2023/08/06 05:16:34;;;;;;;1.10;0.40;;;;;15.80;97513.00;;;;5079765;28;20055;-64
2023/08/06 05:19:01;;;;;;;1.15;0.47;;;;;15.80;97510.00;;;;5079610;28;20051;-63
2023/08/06 05:21:27;;;;;;;0.40;0.35;;;;;15.80;97518.00;;;;5078282;28;20044;-63
2023/08/06 05:23:54;;;;;;;1.17;0.40;;;;;15.90;97512.00;;;;5078026;28;20047;-64
2023/08/06 05:26:21;;;;;;;1.27;0.40;;;;;15.80;97522.00;;;;5069955;28;20115;-64
2023/08/06 05:28:47;;;;;;;0.40;0.40;;;;;15.90;97515.00;;;;5064877;28;20059;-63
2023/08/06 05:31:14;;;;;;;0.43;0.30;;;;;15.90;97510.00;;;;5061473;28;20107;-63
2023/08/06 05:33:41;;;;;;;0.40;0.40;;;;;16.00;97515.00;;;;5079735;28;20048;-63
2023/08/06 05:36:07;;;;;;;2.25;0.70;;;;;16.00;97520.00;;;;5079363;28;20044;-63
2023/08/06 05:38:34;;;;;;;1.00;0.50;;;;;16.00;97513.00;;;;5062238;28;20071;-64
2023/08/06 05:41:00;;;;;;;1.80;0.60;;;;;16.00;97518.00;;;;5061054;28;20098;-63
2023/08/06 05:43:27;;;;;;;0.85;0.50;;;;;16.00;97516.00;;;;5040659;28;20140;-63
2023/08/06 05:45:54;;;;;;;0.57;0.57;;;;;16.10;97520.00;;;;5075091;28;20051;-63
2023/08/06 05:48:22;;;;;;;2.17;0.50;;;;;16.10;97518.00;;;;5057099;28;20070;-62
2023/08/06 05:50:49;;;;;;;1.25;0.50;;;;;16.20;97526.00;;;;5057165;28;20106;-63
2023/08/06 05:53:15;;;;;;;1.75;0.60;;;;;16.10;97523.00;;;;5056200;28;20040;-63
2023/08/06 05:55:43;;;;;;;1.73;0.60;;;;;16.10;97526.00;;;;5038999;28;20072;-63
2023/08/06 05:58:09;;;;;;;1.88;0.47;;;;;16.20;97526.00;;;;5055883;28;20075;-63
2023/08/06 06:00:36;;;;;;;1.13;0.60;;;;;16.30;97523.00;;;;5055399;28;20550;-63
2023/08/06 06:03:03;;;;;;;1.10;0.50;;;;;16.50;97528.00;;;;5055389;28;20052;-63
2023/08/06 06:05:29;;;;;;;1.25;0.50;;;;;16.50;97521.00;;;;5055363;28;20050;-63
2023/08/06 06:07:56;;;;;;;1.05;0.35;;;;;16.50;97523.00;;;;5055639;28;20564;-63
2023/08/06 06:10:22;;;;;;;2.80;0.70;;;;;16.50;97527.00;;;;5038533;28;20045;-63
2023/08/06 06:12:49;;;;;;;1.23;0.52;;;;;16.50;97527.00;;;;5073073;28;20045;-63
2023/08/06 06:15:16;;;;;;;0.45;0.45;;;;;16.40;97521.00;;;;5055369;28;20045;-63
2023/08/06 06:17:42;;;;;;;0.90;0.40;;;;;16.40;97519.00;;;;5073003;28;20044;-63
2023/08/06 06:20:09;;;;;;;0.73;0.40;;;;;16.40;97531.00;;;;5072696;28;20067;-63
2023/08/06 06:22:36;;;;;;;0.30;0.30;;;;;16.40;97526.00;;;;5055254;28;20135;-64
2023/08/06 06:25:02;;;;;;;0.43;0.40;;;;;16.50;97535.00;;;;5073009;28;20041;-64
2023/08/06 06:27:29;;;;;;;0.60;0.40;;;;;16.50;97528.00;;;;5055167;28;20094;-62
2023/08/06 06:29:56;;;;;;;0.85;0.30;;;;;16.60;97530.00;;;;5072752;28;20032;-62
2023/08/06 06:32:22;;;;;;;0.30;0.30;;;;;16.70;97528.00;;;;5072583;28;20044;-61
2023/08/06 06:34:49;;;;;;;0.25;0.25;;;;;16.70;97538.00;;;;5072889;28;20036;-61
2023/08/06 06:37:16;;;;;;;0.20;0.20;;;;;16.70;97537.00;;;;5072649;28;20123;-61
2023/08/06 06:39:42;;;;;;;0.30;0.30;;;;;16.80;97537.00;;;;5054411;28;20049;-61
2023/08/06 06:42:09;;;;;;;0.68;0.40;;;;;16.80;97529.00;;;;5072421;28;20124;-61
2023/08/06 06:44:42;;;;;;;0.40;0.35;;;;;16.80;97544.00;;;;5038917;28;20056;-61
2023/08/06 06:47:09;;;;;;;0.15;0.15;;;;;16.80;97541.00;;;;5054807;28;20124;-61
2023/08/06 06:49:35;;;;;;;0.30;0.30;;;;;16.80;97540.00;;;;5072430;28;20440;-61
2023/08/06 06:52:02;;;;;;;1.65;0.55;;;;;16.80;97529.00;;;;5072777;28;20559;-61
2023/08/06 06:54:28;;;;;;;0.77;0.77;;;;;16.90;97533.00;;;;5072639;28;20556;-61
2023/08/06 06:56:55;;;;;;;2.20;0.60;;;;;17.10;97535.00;;;;5054453;28;20059;-62
2023/08/06 06:59:21;;;;;;;0.60;0.60;;;;;17.30;97536.00;;;;5071408;28;20128;-61
2023/08/06 07:01:48;;;;;;;1.10;0.70;;;;;17.50;97529.00;;;;5054434;28;20040;-61
2023/08/06 07:04:15;;;;;;;1.20;0.77;;;;;17.80;97538.00;;;;5072080;28;20086;-61
2023/08/06 07:06:41;;;;;;;1.55;0.77;;;;;17.90;97545.00;;;;5071964;28;20106;-62
2023/08/06 07:09:08;;;;;;;1.58;0.90;;;;;17.90;97544.00;;;;5054378;28;20123;-62
2023/08/06 07:11:34;;;;;;;2.22;0.80;;;;;17.90;97540.00;;;;5054283;28;20511;-62
2023/08/06 07:14:01;;;;;;;1.20;1.10;;;;;18.10;97554.00;;;;5054218;28;20481;-62
2023/08/06 07:16:29;;;;;;;1.15;0.90;;;;;18.10;97546.00;;;;5071988;28;20072;-62
2023/08/06 07:18:55;;;;;;;1.10;1.00;;;;;18.10;97551.00;;;;5072115;28;20472;-62
2023/08/06 07:21:22;;;;;;;0.80;0.80;;;;;17.90;97557.00;;;;5072370;28;20125;-63
2023/08/06 07:23:49;;;;;;;0.93;0.70;;;;;17.80;97559.00;;;;5054672;28;20050;-63
2023/08/06 07:26:16;;;;;;;1.33;0.80;;;;;17.60;97552.00;;;;5054511;28;20048;-63
2023/08/06 07:28:44;;;;;;;0.60;0.60;;;;;17.60;97559.00;;;;5072673;28;20079;-63
2023/08/06 07:31:11;;;;;;;0.68;0.68;;;;;17.60;97557.00;;;;5054637;28;20128;-63
2023/08/06 07:33:38;;;;;;;1.00;0.85;;;;;17.60;97565.00;;;;5055156;28;20045;-62
2023/08/06 07:36:12;;;;;;;1.42;0.52;;;;;17.60;97566.00;;;;5054560;28;20485;-63
2023/08/06 07:38:39;;;;;;;0.70;0.70;;;;;17.60;97559.00;;;;5054603;28;20074;-63
2023/08/06 07:41:06;;;;;;;0.50;0.50;;;;;17.70;97562.00;;;;5053888;28;20113;-63
2023/08/06 07:43:32;;;;;;;1.10;0.70;;;;;17.80;97558.00;;;;5054715;28;20131;-64
2023/08/06 07:46:00;;;;;;;0.60;0.60;;;;;17.90;97561.00;;;;5020984;28;20135;-63
2023/08/06 07:48:27;;;;;;;0.90;0.60;;;;;18.00;97577.00;;;;5053918;28;20083;-63
2023/08/06 07:50:55;;;;;;;3.40;0.60;;;;;17.80;97569.00;;;;5054008;28;20586;-63
2023/08/06 07:53:23;;;;;;;1.48;0.68;;;;;17.70;97565.00;;;;5053890;28;20131;-63
2023/08/06 07:55:51;;;;;;;0.55;0.55;;;;;17.80;97564.00;;;;5071776;28;20485;-64
2023/08/06 07:58:18;;;;;;;0.43;0.43;;;;;17.90;97558.00;;;;5071779;28;20486;-63
2023/08/06 08:00:46;;;;;;;0.50;0.50;;;;;18.00;97559.00;;;;5054140;28;20072;-64
2023/08/06 08:03:13;;;;;;;1.50;0.40;;;;;18.20;97574.00;;;;5072132;28;20052;-63
2023/08/06 08:05:43;;;;;;;1.02;0.50;;;;;18.30;97573.00;;;;5053941;28;20409;-64
2023/08/06 08:08:10;;;;;;;0.30;0.30;;;;;18.30;97566.00;;;;5037397;28;20051;-63
2023/08/06 08:10:38;;;;;;;0.55;0.55;;;;;18.40;97563.00;;;;5055085;28;20483;-63
2023/08/06 08:13:05;;;;;;;0.40;0.40;;;;;18.50;97564.00;;;;5057786;28;20079;-63
2023/08/06 08:15:32;;;;;;;1.10;1.00;;;;;18.50;97555.00;;;;5057427;28;20044;-63
2023/08/06 08:17:59;;;;;;;0.50;0.40;;;;;18.70;97555.00;;;;5041091;28;20083;-64
2023/08/06 08:20:31;;;;;;;1.05;0.40;;;;;18.80;97559.00;;;;5057353;28;20045;-64
2023/08/06 08:23:00;;;;;;;0.43;0.43;;;;;19.10;97560.00;;;;5057918;28;20143;-64
2023/08/06 08:25:27;;;;;;;0.40;0.40;;;;;19.20;97561.00;;;;5075394;28;20079;-63
2023/08/06 08:27:57;;;;;;;0.98;0.40;;;;;19.00;97568.00;;;;5075353;28;20044;-63
2023/08/06 08:30:24;;;;;;;1.52;0.63;;;;;18.80;97571.00;;;;5057312;28;20048;-63
2023/08/06 08:32:52;;;;;;;0.82;0.50;;;;;18.50;97567.00;;;;5041168;28;20580;-63
2023/08/06 08:35:18;;;;;;;0.90;0.60;;;;;18.30;97575.00;;;;5057936;28;20491;-64
2023/08/06 08:37:45;;;;;;;0.30;0.30;;;;;18.20;97568.00;;;;5075482;28;20493;-63
2023/08/06 08:40:14;;;;;;;0.80;0.60;;;;;18.10;97569.00;;;;5040394;28;20131;-64
2023/08/06 08:42:42;;;;;;;1.25;0.63;;;;;17.90;97577.00;;;;5057222;28;20412;-64
2023/08/06 08:45:13;;;;;;;0.45;0.40;;;;;17.50;97570.00;;;;5074963;28;20147;-64
2023/08/06 08:47:42;;;;;;;0.50;0.50;;;;;17.40;97572.00;;;;5074921;28;20047;-63
2023/08/06 08:50:11;;;;;;;1.30;0.80;;;;;17.10;97573.00;;;;5040081;28;20078;-63
2023/08/06 08:52:39;;;;;;;0.80;0.80;;;;;16.90;97579.00;;;;5074498;28;20047;-63
2023/08/06 08:55:09;;;;;;;1.40;0.50;;;;;17.00;97585.00;;;;5040392;28;20489;-63
2023/08/06 08:57:36;;;;;;;1.00;0.57;;;;;16.90;97589.00;;;;5056919;28;20048;-63
2023/08/06 09:00:04;;;;;;;0.63;0.50;;;;;16.80;97583.00;;;;5056472;28;20600;-63
2023/08/06 09:02:33;;;;;;;0.80;0.80;;;;;16.80;97590.00;;;;5040225;28;20044;-63
2023/08/06 09:05:02;;;;;;;0.50;0.50;;;;;16.70;97595.00;;;;5056457;28;20144;-63
2023/08/06 09:07:36;;;;;;;0.60;0.60;;;;;16.70;97586.00;;;;5074772;28;20105;-63
2023/08/06 09:10:04;;;;;;;0.40;0.40;;;;;16.80;97579.00;;;;5074426;28;20040;-62
2023/08/06 09:12:31;;;;;;;0.88;0.50;;;;;17.10;97578.00;;;;5074177;28;20040;-63
2023/08/06 09:14:58;;;;;;;0.95;0.40;;;;;17.30;97584.00;;;;5074182;28;20040;-64
2023/08/06 09:17:25;;;;;;;0.45;0.45;;;;;17.30;97588.00;;;;5040012;28;20076;-62
2023/08/06 09:19:52;;;;;;;0.55;0.55;;;;;17.20;97597.00;;;;5056267;28;20044;-64
2023/08/06 09:22:19;;;;;;;3.20;1.23;;;;;17.20;97605.00;;;;5055518;28;20554;-63
2023/08/06 09:24:45;;;;;;;1.50;0.43;;;;;17.20;97599.00;;;;5039473;28;20048;-62
2023/08/06 09:27:14;;;;;;;1.00;0.50;;;;;17.20;97606.00;;;;5039553;28;20059;-63
2023/08/06 09:29:45;;;;;;;0.50;0.50;;;;;17.20;97616.00;;;;5039256;28;20041;-62
2023/08/06 09:32:12;;;;;;;0.40;0.40;;;;;17.20;97608.00;;;;5074258;28;20613;-62
2023/08/06 09:34:41;;;;;;;1.27;0.50;;;;;17.20;97606.00;;;;5055990;28;20040;-62
2023/08/06 09:37:11;;;;;;;0.55;0.52;;;;;17.10;97622.00;;;;5073968;28;20055;-63
2023/08/06 09:39:40;;;;;;;0.68;0.68;;;;;17.10;97637.00;;;;5039167;28;20567;-64
2023/08/06 09:42:06;;;;;;;0.88;0.45;;;;;17.10;97628.00;;;;5055436;28;20048;-61
2023/08/06 09:44:34;;;;;;;0.40;0.40;;;;;17.10;97638.00;;;;5055437;28;20048;-62
2023/08/06 09:47:03;;;;;;;1.85;0.60;;;;;17.10;97635.00;;;;5056057;28;20439;-65
2023/08/06 09:49:32;;;;;;;0.65;0.47;;;;;17.00;97639.00;;;;5055610;28;20048;-63
2023/08/06 09:52:00;;;;;;;0.70;0.40;;;;;16.90;97653.00;;;;5055816;28;20127;-63
2023/08/06 09:54:28;;;;;;;0.47;0.47;;;;;16.90;97658.00;;;;5073779;28;20045;-63
2023/08/06 09:56:56;;;;;;;0.50;0.50;;;;;16.80;97671.00;;;;5073581;28;20045;-63
2023/08/06 09:59:23;;;;;;;0.55;0.50;;;;;16.80;97677.00;;;;5038968;28;20127;-62
2023/08/06 10:01:51;;;;;;;0.47;0.47;;;;;16.70;97676.00;;;;5055818;28;20043;-63
2023/08/06 10:04:20;;;;;;;1.13;0.60;;;;;16.80;97682.00;;;;5073328;28;20041;-63
2023/08/06 10:06:50;;;;;;;0.50;0.50;;;;;16.70;97682.00;;;;5055338;28;20524;-63
2023/08/06 10:09:18;;;;;;;0.40;0.40;;;;;16.80;97677.00;;;;5055475;28;20072;-63
2023/08/06 10:11:50;;;;;;;0.60;0.40;;;;;16.80;97687.00;;;;5055327;28;20064;-64
2023/08/06 10:14:36;;;;;;;1.03;0.60;;;;;16.90;97684.00;;;;5055352;28;20068;-63
2023/08/06 10:17:04;;;;;;;1.92;0.70;;;;;16.80;97689.00;;;;5038727;28;20087;-65
2023/08/06 10:19:31;;;;;;;1.10;0.98;;;;;16.80;97696.00;;;;5072914;28;20048;-64
2023/08/06 10:22:16;;;;;;;0.90;0.63;;;;;16.90;97703.00;;;;5055202;28;20048;-65
2023/08/06 10:24:46;;;;;;;0.85;0.63;;;;;17.00;97696.00;;;;5055282;28;20127;-64
2023/08/06 10:27:13;;;;;;;0.80;0.80;;;;;17.10;97693.00;;;;5072763;28;20560;-64
2023/08/06 10:29:39;;;;;;;2.80;0.70;;;;;17.30;97694.00;;;;5072470;28;20052;-64
2023/08/06 10:32:06;;;;;;;1.58;0.60;;;;;17.20;97711.00;;;;5055179;28;20041;-64
2023/08/06 10:34:53;;;;;;;1.25;0.73;;;;;17.10;97705.00;;;;5072710;28;20507;-62
2023/08/06 10:37:20;;;;;;;1.00;0.60;;;;;17.00;97708.00;;;;5038062;28;20098;-62
2023/08/06 10:39:53;;;;;;;1.60;0.80;;;;;17.20;97710.00;;;;5072730;28;20393;-64
2023/08/06 10:42:27;;;;;;;1.00;0.70;;;;;17.40;97716.00;;;;5072292;28;20105;-64
2023/08/06 10:45:15;;;;;;;1.08;0.90;;;;;17.60;97719.00;;;;5072514;28;20049;-65
2023/08/06 10:47:42;;;;;;;1.17;1.00;;;;;17.70;97723.00;;;;5054328;28;20094;-65
2023/08/06 10:50:17;;;;;;;1.33;0.88;;;;;17.80;97725.00;;;;5072302;28;20047;-64
2023/08/06 10:52:45;;;;;;;1.13;0.80;;;;;18.00;97728.00;;;;5072163;28;20398;-63
2023/08/06 10:55:12;;;;;;;1.15;0.90;;;;;18.10;97731.00;;;;5038248;28;20072;-63
2023/08/06 10:57:38;;;;;;;1.23;1.00;;;;;18.20;97740.00;;;;5072187;28;20405;-65
2023/08/06 11:00:08;;;;;;;1.35;0.85;;;;;18.30;97741.00;;;;5072074;28;20120;-63
2023/08/06 11:02:42;;;;;;;1.67;1.08;;;;;18.30;97745.00;;;;5072409;28;20512;-63
2023/08/06 11:05:09;;;;;;;1.25;0.82;;;;;18.40;97757.00;;;;5071866;28;20139;-63
2023/08/06 11:07:36;;;;;;;2.58;1.05;;;;;18.20;97760.00;;;;5072137;28;20090;-63
2023/08/06 11:10:08;;;;;;;1.10;1.00;;;;;18.00;97754.00;;;;5054313;28;20032;-63
2023/08/06 11:12:36;;;;;;;1.73;1.00;;;;;17.90;97754.00;;;;5054137;28;20044;-63
2023/08/06 11:15:03;;;;;;;0.88;0.88;;;;;17.80;97771.00;;;;5072061;28;20561;-63
2023/08/06 11:17:32;;;;;;;1.05;0.80;;;;;17.80;97759.00;;;;5053970;28;20049;-63
2023/08/06 11:20:00;;;;;;;0.98;0.88;;;;;17.80;97773.00;;;;5071797;28;20056;-63
2023/08/06 11:22:27;;;;;;;1.67;0.80;;;;;17.90;97773.00;;;;5054256;28;20231;-63
2023/08/06 11:24:54;;;;;;;2.40;1.02;;;;;18.00;97771.00;;;;5054253;28;20509;-63
2023/08/06 11:27:21;;;;;;;1.77;1.10;;;;;18.00;97772.00;;;;5054013;28;20052;-63
2023/08/06 11:29:47;;;;;;;2.50;1.33;;;;;18.00;97783.00;;;;5053922;28;20040;-63
2023/08/06 11:32:14;;;;;;;1.42;1.08;;;;;18.00;97787.00;;;;5054157;28;20076;-63
2023/08/06 11:34:43;;;;;;;4.00;1.10;;;;;17.90;97781.00;;;;5071810;28;20043;-64
2023/08/06 11:37:10;;;;;;;2.97;1.25;;;;;17.90;97787.00;;;;5054125;28;20506;-63
2023/08/06 11:39:38;;;;;;;3.00;1.63;;;;;17.90;97789.00;;;;5071695;28;20515;-63
2023/08/06 11:42:08;;;;;;;2.67;1.60;;;;;17.80;97795.00;;;;5037635;28;20409;-63
2023/08/06 11:44:35;;;;;;;1.65;1.10;;;;;17.80;97802.00;;;;5071701;28;20120;-63
2023/08/06 11:47:05;;;;;;;1.20;1.00;;;;;17.60;97823.00;;;;5057580;28;20049;-63
2023/08/06 11:49:44;;;;;;;2.25;1.50;;;;;17.30;97815.00;;;;5057626;28;20079;-63
2023/08/06 11:52:13;;;;;;;2.13;1.70;;;;;17.20;97814.00;;;;5057754;28;20139;-63
2023/08/06 11:54:39;;;;;;;2.53;1.45;;;;;17.20;97830.00;;;;5057889;28;20128;-64
2023/08/06 11:57:06;;;;;;;2.83;1.70;;;;;17.20;97820.00;;;;5075497;28;20044;-63
2023/08/06 11:59:33;;;;;;;4.53;2.65;;;;;17.30;97828.00;;;;5041674;28;20044;-63
2023/08/06 12:02:02;;;;;;;4.32;2.45;;;;;17.50;97828.00;;;;5058288;28;20090;-63
2023/08/06 12:04:29;;;;;;;2.55;1.25;;;;;17.60;97838.00;;;;5041765;28;20070;-63
2023/08/06 12:07:04;;;;;;;2.65;1.33;;;;;17.60;97841.00;;;;5075855;28;20076;-63
2023/08/06 12:09:31;;;;;;;2.50;1.65;;;;;17.60;97844.00;;;;5075714;28;20455;-63
2023/08/06 12:11:57;;;;;;;2.75;1.33;;;;;17.60;97847.00;;;;5057292;28;20143;-63
2023/08/06 12:14:24;;;;;;;3.20;2.35;;;;;17.70;97848.00;;;;5057391;28;20118;-64
2023/08/06 12:16:51;;;;;;;3.63;1.65;;;;;17.70;97849.00;;;;5057558;28;20041;-63
2023/08/06 12:19:17;;;;;;;2.90;1.83;;;;;17.70;97852.00;;;;5074966;28;20503;-64
2023/08/06 12:21:44;;;;;;;2.35;1.60;;;;;17.70;97860.00;;;;5057413;28;20493;-64
2023/08/06 12:24:11;;;;;;;1.95;1.10;;;;;17.70;97857.00;;;;5057502;28;20132;-66
2023/08/06 12:26:38;;;;;;;1.25;1.15;;;;;17.60;97858.00;;;;5057690;28;20396;-64